Time;durP1;ratioP1;P1;durP2;ratioP2;P2;SDS_P1;SDS_P2;PMS_P1;PMS_P2;Temp;Humidity;BMP_temperature;BMP_pressure;BME280_temperature;BME280_humidity;BME280_pressure;Samples;Min_cycle;Max_cycle;Signal;HPM_P1;HPM_P2
2021/03/13 00:02:14;;;;;;;1.10;1.00;;;23.20;27.00;;;;;;5051017;28;20294;-55
2021/03/13 00:04:40;;;;;;;1.08;0.90;;;23.20;27.00;;;;;;5045799;28;20653;-53
2021/03/13 00:07:06;;;;;;;0.85;0.85;;;23.20;27.00;;;;;;5051799;28;20198;-52
2021/03/13 00:09:32;;;;;;;1.60;0.90;;;23.20;27.10;;;;;;5050519;28;20224;-50
2021/03/13 00:11:58;;;;;;;1.50;1.15;;;23.20;27.00;;;;;;5050450;28;20896;-50
2021/03/13 00:14:24;;;;;;;1.10;1.00;;;23.20;27.00;;;;;;5050263;28;20209;-51
2021/03/13 00:16:50;;;;;;;0.87;0.87;;;23.20;27.10;;;;;;5049769;28;20201;-55
2021/03/13 00:19:16;;;;;;;1.00;0.90;;;23.20;27.00;;;;;;5049094;28;20731;-54
2021/03/13 00:21:42;;;;;;;1.13;0.90;;;23.20;27.10;;;;;;5045138;28;20210;-51
2021/03/13 00:24:08;;;;;;;1.17;1.07;;;23.20;27.10;;;;;;5049977;28;20213;-55
2021/03/13 00:26:34;;;;;;;1.00;0.90;;;23.20;27.10;;;;;;5051407;28;20228;-50
2021/03/13 00:29:00;;;;;;;1.37;1.03;;;23.20;27.10;;;;;;5051136;28;20200;-54
2021/03/13 00:31:26;;;;;;;1.67;0.90;;;23.20;27.10;;;;;;5050358;28;20668;-53
2021/03/13 00:33:52;;;;;;;1.30;1.00;;;23.20;27.00;;;;;;5050428;28;20254;-53
2021/03/13 00:36:18;;;;;;;1.50;1.10;;;23.20;27.00;;;;;;5051685;28;20199;-53
2021/03/13 00:38:44;;;;;;;1.10;1.00;;;23.20;27.10;;;;;;5048959;28;20288;-53
2021/03/13 00:41:10;;;;;;;1.30;1.20;;;23.20;27.10;;;;;;5049197;28;20660;-54
2021/03/13 00:43:36;;;;;;;1.80;1.10;;;23.20;27.00;;;;;;5049624;28;20259;-50
2021/03/13 00:46:02;;;;;;;1.60;0.90;;;23.20;27.00;;;;;;5051304;28;20212;-49
2021/03/13 00:48:28;;;;;;;1.27;0.90;;;23.20;27.60;;;;;;5049732;28;20202;-51
2021/03/13 00:50:54;;;;;;;1.40;0.80;;;23.20;27.00;;;;;;5051428;28;20220;-54
2021/03/13 00:53:19;;;;;;;0.80;0.80;;;23.20;27.10;;;;;;5049146;28;20343;-51
2021/03/13 00:55:45;;;;;;;1.43;1.00;;;23.20;27.20;;;;;;5049994;28;20665;-51
2021/03/13 00:58:11;;;;;;;1.10;1.00;;;23.20;27.10;;;;;;5050688;28;20232;-52
2021/03/13 01:00:37;;;;;;;1.53;0.80;;;23.20;27.10;;;;;;5051263;28;20197;-49
2021/03/13 01:03:03;;;;;;;1.20;0.87;;;23.20;27.10;;;;;;5050313;28;20595;-55
2021/03/13 01:05:29;;;;;;;1.80;1.07;;;23.20;27.20;;;;;;5051115;28;20266;-54
2021/03/13 01:07:55;;;;;;;1.33;1.20;;;23.20;27.20;;;;;;5050094;28;20205;-53
2021/03/13 01:10:21;;;;;;;1.00;0.90;;;23.20;27.20;;;;;;5050838;28;20604;-56
2021/03/13 01:12:47;;;;;;;1.00;0.90;;;23.20;27.20;;;;;;5044505;28;20225;-54
2021/03/13 01:15:13;;;;;;;1.10;1.00;;;23.20;27.20;;;;;;5054882;28;20259;-51
2021/03/13 01:17:39;;;;;;;1.00;0.90;;;23.20;27.30;;;;;;5054404;28;20718;-51
2021/03/13 01:20:05;;;;;;;1.30;1.00;;;23.20;27.30;;;;;;5054010;28;20217;-51
2021/03/13 01:22:31;;;;;;;1.87;0.90;;;23.20;27.20;;;;;;5053135;28;20229;-50
2021/03/13 01:24:57;;;;;;;1.30;1.00;;;23.20;27.30;;;;;;5048918;28;20220;-55
2021/03/13 01:27:23;;;;;;;0.90;0.90;;;23.20;27.20;;;;;;5070575;28;20204;-53
2021/03/13 01:29:49;;;;;;;1.37;1.00;;;23.20;27.20;;;;;;5049055;28;20212;-52
2021/03/13 01:32:15;;;;;;;1.17;0.97;;;23.20;27.20;;;;;;5053707;28;20218;-51
2021/03/13 01:34:41;;;;;;;0.87;0.80;;;23.20;27.20;;;;;;5053891;28;20201;-52
2021/03/13 01:37:07;;;;;;;1.50;1.00;;;23.20;27.30;;;;;;5053888;28;20205;-49
2021/03/13 01:39:33;;;;;;;1.07;0.90;;;23.20;27.20;;;;;;5047205;28;20237;-50
2021/03/13 01:41:59;;;;;;;2.37;0.80;;;23.20;27.20;;;;;;5051066;28;20229;-50
2021/03/13 01:44:25;;;;;;;0.93;0.80;;;23.20;27.20;;;;;;5052616;28;20707;-51
2021/03/13 01:46:51;;;;;;;0.80;0.80;;;23.20;27.20;;;;;;5040439;28;20220;-54
2021/03/13 01:49:17;;;;;;;0.80;0.80;;;23.20;27.20;;;;;;5052907;28;20593;-48
2021/03/13 01:51:42;;;;;;;0.80;0.80;;;23.20;27.30;;;;;;5051958;28;20225;-50
2021/03/13 01:54:08;;;;;;;0.80;0.77;;;23.20;27.20;;;;;;5053430;28;20209;-52
2021/03/13 01:56:34;;;;;;;1.13;0.90;;;23.20;27.30;;;;;;5053647;28;20663;-50
2021/03/13 01:59:00;;;;;;;1.63;1.00;;;23.20;27.30;;;;;;5053639;28;20244;-52
2021/03/13 02:01:26;;;;;;;1.25;0.85;;;23.20;27.30;;;;;;5052854;28;20224;-53
2021/03/13 02:03:52;;;;;;;0.93;0.93;;;23.20;27.30;;;;;;5044592;28;20197;-51
2021/03/13 02:06:18;;;;;;;2.60;1.10;;;23.20;27.30;;;;;;5053595;28;20205;-53
2021/03/13 02:08:44;;;;;;;1.73;0.93;;;23.20;27.30;;;;;;5053794;28;20198;-55
2021/03/13 02:11:10;;;;;;;0.77;0.77;;;23.20;27.30;;;;;;5053129;28;20287;-53
2021/03/13 02:13:36;;;;;;;1.53;0.80;;;23.20;27.30;;;;;;5053054;28;20201;-52
2021/03/13 02:16:02;;;;;;;1.03;0.90;;;23.20;27.30;;;;;;5053467;28;20239;-56
2021/03/13 02:18:28;;;;;;;1.03;0.77;;;23.20;27.30;;;;;;5052771;28;20713;-55
2021/03/13 02:20:54;;;;;;;0.90;0.90;;;23.20;27.40;;;;;;5052845;28;20228;-52
2021/03/13 02:23:20;;;;;;;1.00;0.90;;;23.20;27.30;;;;;;5051574;28;20291;-57
2021/03/13 02:25:46;;;;;;;1.30;1.00;;;23.20;27.40;;;;;;5052980;28;20669;-54
2021/03/13 02:28:12;;;;;;;1.48;1.00;;;23.20;27.30;;;;;;5052594;28;20212;-53
2021/03/13 02:30:38;;;;;;;0.80;0.80;;;23.20;27.40;;;;;;5053548;28;20213;-56
2021/03/13 02:33:04;;;;;;;1.50;1.00;;;23.20;27.30;;;;;;5051311;28;20222;-52
2021/03/13 02:35:30;;;;;;;2.80;0.90;;;23.20;27.40;;;;;;5052283;28;20202;-56
2021/03/13 02:37:56;;;;;;;1.10;1.00;;;23.20;27.30;;;;;;5042689;28;20213;-56
2021/03/13 02:40:22;;;;;;;1.27;1.17;;;23.20;27.40;;;;;;5066898;28;20201;-53
2021/03/13 02:42:48;;;;;;;1.00;1.00;;;23.20;27.40;;;;;;5065759;28;20689;-53
2021/03/13 02:45:14;;;;;;;1.20;1.10;;;23.20;27.40;;;;;;5052470;28;20209;-55
2021/03/13 02:47:40;;;;;;;0.70;0.70;;;23.20;27.40;;;;;;5053367;28;20606;-57
2021/03/13 02:50:06;;;;;;;0.97;0.80;;;23.20;27.40;;;;;;5051573;28;20215;-54
2021/03/13 02:52:32;;;;;;;0.90;0.90;;;23.20;27.40;;;;;;5052092;28;20220;-54
2021/03/13 02:54:58;;;;;;;1.60;0.80;;;23.20;27.40;;;;;;5045970;28;20202;-50
2021/03/13 02:57:24;;;;;;;0.80;0.80;;;23.20;27.40;;;;;;5051294;28;20205;-56
2021/03/13 02:59:50;;;;;;;1.10;1.00;;;23.20;27.40;;;;;;5046017;28;20306;-48
2021/03/13 03:02:16;;;;;;;0.87;0.87;;;23.20;27.40;;;;;;5049107;28;20839;-49
2021/03/13 03:04:42;;;;;;;0.73;0.73;;;23.20;27.40;;;;;;5053105;28;20198;-48
2021/03/13 03:07:08;;;;;;;0.90;0.90;;;23.20;27.40;;;;;;5053705;28;20212;-47
2021/03/13 03:09:34;;;;;;;1.57;1.00;;;23.20;27.40;;;;;;5051828;28;20206;-49
2021/03/13 03:11:59;;;;;;;1.10;1.00;;;23.20;27.50;;;;;;5037838;28;20596;-48
2021/03/13 03:14:25;;;;;;;1.00;0.90;;;23.10;27.40;;;;;;5050546;28;20209;-52
2021/03/13 03:16:51;;;;;;;0.90;0.90;;;23.20;27.40;;;;;;5049726;28;20202;-52
2021/03/13 03:19:18;;;;;;;1.60;1.03;;;23.20;27.40;;;;;;5051909;28;20255;-50
2021/03/13 03:21:44;;;;;;;1.13;0.90;;;23.20;27.40;;;;;;5052706;28;20220;-51
2021/03/13 03:24:10;;;;;;;0.70;0.70;;;23.20;27.40;;;;;;5050192;28;20575;-52
2021/03/13 03:26:36;;;;;;;1.02;0.90;;;23.20;27.40;;;;;;5052147;28;20205;-53
2021/03/13 03:29:02;;;;;;;0.80;0.80;;;23.20;27.40;;;;;;5049213;28;20204;-51
2021/03/13 03:31:28;;;;;;;0.80;0.80;;;23.20;27.40;;;;;;5051512;28;20218;-52
2021/03/13 03:33:54;;;;;;;0.93;0.90;;;23.20;27.50;;;;;;5049732;28;20647;-51
2021/03/13 03:36:20;;;;;;;0.90;0.70;;;23.10;27.40;;;;;;5050925;28;20202;-51
2021/03/13 03:38:46;;;;;;;0.80;0.80;;;23.10;27.40;;;;;;5050489;28;20224;-52
2021/03/13 03:41:12;;;;;;;0.73;0.70;;;23.10;27.40;;;;;;5051977;28;20648;-53
2021/03/13 03:43:38;;;;;;;1.43;0.90;;;23.20;27.50;;;;;;5050704;28;20218;-53
2021/03/13 03:46:04;;;;;;;1.13;1.10;;;23.10;27.40;;;;;;5035523;28;20213;-50
2021/03/13 03:48:30;;;;;;;1.00;0.90;;;23.10;27.40;;;;;;5050425;28;20209;-53
2021/03/13 03:50:56;;;;;;;1.20;1.10;;;23.10;27.50;;;;;;5051457;28;20229;-54
2021/03/13 03:53:22;;;;;;;0.87;0.80;;;23.20;27.50;;;;;;5050100;28;20205;-52
2021/03/13 03:55:48;;;;;;;1.20;0.80;;;23.20;27.50;;;;;;5051292;28;20209;-49
2021/03/13 03:58:14;;;;;;;0.83;0.83;;;23.20;27.50;;;;;;5051097;28;20244;-56
2021/03/13 04:00:40;;;;;;;1.40;0.90;;;23.20;27.50;;;;;;5049715;28;20208;-50
2021/03/13 04:03:06;;;;;;;1.07;0.90;;;23.20;27.50;;;;;;5043553;28;20206;-52
2021/03/13 04:05:32;;;;;;;0.80;0.80;;;23.20;27.50;;;;;;5051311;28;20201;-52
2021/03/13 04:07:58;;;;;;;0.90;0.83;;;23.20;27.50;;;;;;5051936;28;20216;-52
2021/03/13 04:10:24;;;;;;;1.30;0.80;;;23.20;27.50;;;;;;5051238;28;21142;-52
2021/03/13 04:12:50;;;;;;;1.00;0.90;;;23.20;27.50;;;;;;5050582;28;20222;-51
2021/03/13 04:15:16;;;;;;;0.97;0.70;;;23.20;27.50;;;;;;5051219;28;20201;-51
2021/03/13 04:17:42;;;;;;;0.80;0.70;;;23.20;27.50;;;;;;5051383;28;20649;-52
2021/03/13 04:20:07;;;;;;;1.43;1.30;;;23.20;27.50;;;;;;5049930;28;20236;-53
2021/03/13 04:22:33;;;;;;;1.03;0.90;;;23.20;27.50;;;;;;5051006;28;20221;-49
2021/03/13 04:24:59;;;;;;;0.97;0.87;;;23.20;27.50;;;;;;5048370;28;20209;-52
2021/03/13 04:27:25;;;;;;;1.43;0.80;;;23.20;27.50;;;;;;5050243;28;20201;-53
2021/03/13 04:29:51;;;;;;;0.97;0.90;;;23.10;27.40;;;;;;5051016;28;20209;-52
2021/03/13 04:32:17;;;;;;;1.33;0.93;;;23.10;27.50;;;;;;5048987;28;20218;-54
2021/03/13 04:34:43;;;;;;;1.10;1.00;;;23.10;27.50;;;;;;5050136;28;20210;-48
2021/03/13 04:37:09;;;;;;;1.37;1.00;;;23.20;27.50;;;;;;5035120;28;20210;-50
2021/03/13 04:39:35;;;;;;;1.50;1.00;;;23.20;27.60;;;;;;5050174;28;20229;-49
2021/03/13 04:42:01;;;;;;;0.80;0.80;;;23.10;27.50;;;;;;5050044;28;20240;-52
2021/03/13 04:44:27;;;;;;;1.03;0.90;;;23.20;27.60;;;;;;5050830;28;20190;-49
2021/03/13 04:46:53;;;;;;;1.40;1.00;;;23.10;27.50;;;;;;5056506;28;20205;-48
2021/03/13 04:49:19;;;;;;;0.70;0.70;;;23.10;27.50;;;;;;5063518;28;20205;-51
2021/03/13 04:51:45;;;;;;;1.10;1.00;;;23.10;27.50;;;;;;5048990;28;20225;-54
2021/03/13 04:54:13;;;;;;;0.80;0.80;;;23.20;27.60;;;;;;5041053;28;20669;-52
2021/03/13 04:56:39;;;;;;;0.90;0.90;;;23.10;27.50;;;;;;5049582;28;20731;-51
2021/03/13 04:59:05;;;;;;;0.90;0.83;;;23.10;27.50;;;;;;5050901;28;20228;-51
2021/03/13 05:01:31;;;;;;;1.07;0.87;;;23.20;27.50;;;;;;5049929;28;20304;-50
2021/03/13 05:03:57;;;;;;;1.20;0.87;;;23.10;27.40;;;;;;5050386;28;20252;-48
2021/03/13 05:06:23;;;;;;;1.17;0.87;;;23.20;27.50;;;;;;5051021;28;20215;-49
2021/03/13 05:08:49;;;;;;;2.00;1.10;;;23.20;27.80;;;;;;5050325;28;20586;-51
2021/03/13 05:11:16;;;;;;;2.43;1.23;;;23.10;28.00;;;;;;5035564;28;20220;-53
2021/03/13 05:13:42;;;;;;;2.97;1.30;;;23.10;28.10;;;;;;5045788;28;20209;-56
2021/03/13 05:16:08;;;;;;;1.92;1.00;;;23.10;28.10;;;;;;5050223;28;20655;-54
2021/03/13 05:18:34;;;;;;;2.00;1.00;;;23.20;28.00;;;;;;5050470;28;20248;-54
2021/03/13 05:21:00;;;;;;;1.23;0.90;;;23.10;27.70;;;;;;5050613;28;20229;-54
2021/03/13 05:23:26;;;;;;;1.48;0.90;;;23.20;27.80;;;;;;5040262;28;20795;-52
2021/03/13 05:25:52;;;;;;;1.73;0.80;;;23.10;27.60;;;;;;5050985;28;20198;-56
2021/03/13 05:28:17;;;;;;;1.13;0.90;;;23.10;27.60;;;;;;5047915;28;20205;-54
2021/03/13 05:30:43;;;;;;;0.77;0.70;;;23.10;27.60;;;;;;5049728;28;20589;-55
2021/03/13 05:33:09;;;;;;;1.30;1.20;;;23.10;27.60;;;;;;5048531;28;20213;-55
2021/03/13 05:35:37;;;;;;;1.33;0.90;;;23.10;27.60;;;;;;5050855;28;20212;-56
2021/03/13 05:38:02;;;;;;;1.13;0.80;;;23.10;27.60;;;;;;5049477;28;20206;-55
2021/03/13 05:40:28;;;;;;;1.07;0.83;;;23.10;27.60;;;;;;5050425;28;20598;-56
2021/03/13 05:42:54;;;;;;;1.13;1.02;;;23.10;27.50;;;;;;5049287;28;20214;-55
2021/03/13 05:45:20;;;;;;;1.95;0.80;;;23.10;27.50;;;;;;5046490;28;20205;-54
2021/03/13 05:47:46;;;;;;;1.00;0.90;;;23.10;27.50;;;;;;5049665;28;20202;-56
2021/03/13 05:50:12;;;;;;;1.57;0.73;;;23.10;27.50;;;;;;5035458;28;20201;-55
2021/03/13 05:52:38;;;;;;;0.83;0.83;;;23.10;27.50;;;;;;5049721;28;20194;-53
2021/03/13 05:55:04;;;;;;;1.00;0.90;;;23.20;27.50;;;;;;5048640;28;20238;-55
2021/03/13 05:57:30;;;;;;;1.00;0.90;;;23.10;27.50;;;;;;5050282;28;20650;-56
2021/03/13 05:59:56;;;;;;;0.80;0.80;;;23.20;27.50;;;;;;5051052;28;20255;-55
2021/03/13 06:02:22;;;;;;;0.82;0.82;;;23.10;27.40;;;;;;5052618;28;20201;-55
2021/03/13 06:04:48;;;;;;;1.43;0.90;;;23.20;27.50;;;;;;5053341;28;20623;-53
2021/03/13 06:07:14;;;;;;;1.33;0.90;;;23.20;27.50;;;;;;5054155;28;20296;-55
2021/03/13 06:09:40;;;;;;;1.15;0.82;;;23.20;27.50;;;;;;5053858;28;20205;-55
2021/03/13 06:12:06;;;;;;;1.77;0.90;;;23.20;27.50;;;;;;5053069;28;20584;-53
2021/03/13 06:14:32;;;;;;;1.07;0.90;;;23.20;27.50;;;;;;5052985;28;20220;-55
2021/03/13 06:16:58;;;;;;;0.80;0.80;;;23.20;27.50;;;;;;5053355;28;20201;-56
2021/03/13 06:19:24;;;;;;;2.00;0.93;;;23.10;27.50;;;;;;5052912;28;20603;-54
2021/03/13 06:21:50;;;;;;;1.13;1.03;;;23.10;27.50;;;;;;5052237;28;20282;-56
2021/03/13 06:24:18;;;;;;;1.17;0.80;;;23.10;27.50;;;;;;5053027;28;20220;-56
2021/03/13 06:26:44;;;;;;;1.97;0.80;;;23.20;27.50;;;;;;5052350;28;20259;-52
2021/03/13 06:29:10;;;;;;;1.57;1.00;;;23.10;27.50;;;;;;5052974;28;20205;-57
2021/03/13 06:31:36;;;;;;;0.87;0.80;;;23.10;27.50;;;;;;5053280;28;20227;-54
2021/03/13 06:34:02;;;;;;;0.90;0.80;;;23.20;27.60;;;;;;5050829;28;20210;-55
2021/03/13 06:36:28;;;;;;;2.23;1.10;;;23.20;27.60;;;;;;5047538;28;20561;-52
2021/03/13 06:38:55;;;;;;;1.40;1.00;;;23.20;27.60;;;;;;5051829;28;20244;-54
2021/03/13 06:41:22;;;;;;;1.23;0.80;;;23.20;27.60;;;;;;5053174;28;20282;-55
2021/03/13 06:43:48;;;;;;;0.80;0.80;;;23.20;27.50;;;;;;5051934;28;20201;-55
2021/03/13 06:46:14;;;;;;;0.80;0.80;;;23.20;27.50;;;;;;5052261;28;20308;-54
2021/03/13 06:48:40;;;;;;;0.80;0.80;;;23.20;27.50;;;;;;5052251;28;20209;-55
2021/03/13 06:51:06;;;;;;;0.80;0.80;;;23.20;27.50;;;;;;5056419;28;20685;-56
2021/03/13 06:53:32;;;;;;;1.43;0.70;;;23.20;27.50;;;;;;5052110;28;20205;-54
2021/03/13 06:55:58;;;;;;;0.90;0.83;;;23.20;27.50;;;;;;5046111;28;20212;-56
2021/03/13 06:58:24;;;;;;;1.00;0.70;;;23.20;27.50;;;;;;5052946;28;20664;-54
2021/03/13 07:00:50;;;;;;;0.70;0.70;;;23.20;27.50;;;;;;5053356;28;20213;-53
2021/03/13 07:03:16;;;;;;;1.17;1.07;;;23.20;27.50;;;;;;5052145;28;20209;-53
2021/03/13 07:05:42;;;;;;;0.90;0.90;;;23.20;27.50;;;;;;5051593;28;20658;-51
2021/03/13 07:08:08;;;;;;;1.00;0.70;;;23.20;27.50;;;;;;5051691;28;20204;-52
2021/03/13 07:10:34;;;;;;;0.77;0.70;;;23.20;27.50;;;;;;5052131;28;20237;-57
2021/03/13 07:13:00;;;;;;;0.73;0.70;;;23.20;27.60;;;;;;5048977;28;20328;-55
2021/03/13 07:15:26;;;;;;;1.03;0.93;;;23.20;27.60;;;;;;5043490;28;20201;-52
2021/03/13 07:17:52;;;;;;;1.13;0.90;;;23.20;27.60;;;;;;5050679;28;20207;-55
2021/03/13 07:20:18;;;;;;;1.10;0.87;;;23.20;27.60;;;;;;5052873;28;20263;-50
2021/03/13 07:22:44;;;;;;;0.77;0.77;;;23.20;27.60;;;;;;5052223;28;20194;-51
2021/03/13 07:25:10;;;;;;;1.20;0.80;;;23.20;27.60;;;;;;5058563;28;20221;-55
2021/03/13 07:27:40;;;;;;;1.70;1.00;;;23.20;27.60;;;;;;5049200;28;20209;-55
2021/03/13 07:30:06;;;;;;;0.70;0.70;;;23.20;27.60;;;;;;5044287;28;20307;-56
2021/03/13 07:32:32;;;;;;;1.10;0.97;;;23.20;27.70;;;;;;5052281;28;20223;-54
2021/03/13 07:34:58;;;;;;;0.80;0.80;;;23.20;27.60;;;;;;5051721;28;20207;-53
2021/03/13 07:37:24;;;;;;;1.47;0.80;;;23.20;27.60;;;;;;5052232;28;20247;-55
2021/03/13 07:39:50;;;;;;;0.83;0.80;;;23.20;27.60;;;;;;5051511;28;20241;-56
2021/03/13 07:42:16;;;;;;;1.13;0.70;;;23.20;27.60;;;;;;5031926;28;20722;-50
2021/03/13 07:44:43;;;;;;;2.67;0.97;;;23.20;27.50;;;;;;5038555;28;20259;-53
2021/03/13 07:47:09;;;;;;;1.47;0.87;;;23.20;27.50;;;;;;5051482;28;20216;-51
2021/03/13 07:49:35;;;;;;;0.80;0.80;;;23.20;27.50;;;;;;5051662;28;20205;-51
2021/03/13 07:52:01;;;;;;;0.70;0.70;;;23.20;27.50;;;;;;5051789;28;20207;-54
2021/03/13 07:54:27;;;;;;;0.97;0.87;;;23.20;27.50;;;;;;5051552;28;20212;-54
2021/03/13 07:56:53;;;;;;;0.80;0.80;;;23.20;27.50;;;;;;5050615;28;20209;-52
2021/03/13 07:59:19;;;;;;;1.20;0.93;;;23.20;27.60;;;;;;5050431;28;20229;-55
2021/03/13 08:01:45;;;;;;;1.30;0.80;;;23.20;27.50;;;;;;5050310;28;20221;-53
2021/03/13 08:04:11;;;;;;;0.80;0.80;;;23.20;27.50;;;;;;5050762;28;20201;-56
2021/03/13 08:06:37;;;;;;;1.17;0.90;;;23.20;27.50;;;;;;5051542;28;20608;-55
2021/03/13 08:09:03;;;;;;;1.60;0.80;;;23.20;27.50;;;;;;5051646;28;20213;-56
2021/03/13 08:11:29;;;;;;;1.07;0.90;;;23.20;27.60;;;;;;5059489;28;20229;-54
2021/03/13 08:13:55;;;;;;;1.80;1.03;;;23.20;27.60;;;;;;5043675;28;20213;-55
2021/03/13 08:16:22;;;;;;;2.60;1.00;;;23.20;28.00;;;;;;5035382;28;20201;-51
2021/03/13 08:18:48;;;;;;;1.40;1.00;;;23.30;27.90;;;;;;5049949;28;20564;-49
2021/03/13 08:21:14;;;;;;;1.87;1.07;;;23.40;28.00;;;;;;5047050;28;20256;-47
2021/03/13 08:23:40;;;;;;;1.58;1.20;;;23.50;28.80;;;;;;5048877;28;20688;-49
2021/03/13 08:26:06;;;;;;;2.97;1.23;;;23.40;28.30;;;;;;5051097;28;20205;-46
2021/03/13 08:28:32;;;;;;;4.93;1.90;;;23.30;28.20;;;;;;5046890;28;20208;-53
2021/03/13 08:30:58;;;;;;;2.72;1.30;;;23.40;28.60;;;;;;5048486;28;20229;-59
2021/03/13 08:33:24;;;;;;;5.28;1.00;;;23.40;29.10;;;;;;5046665;28;20217;-57
2021/03/13 08:35:50;;;;;;;5.63;1.17;;;23.30;28.50;;;;;;5051619;28;20200;-60
2021/03/13 08:38:16;;;;;;;1.90;1.00;;;23.20;28.80;;;;;;5051420;28;20210;-53
2021/03/13 08:40:42;;;;;;;3.10;1.20;;;23.20;29.40;;;;;;5050127;28;20721;-59
2021/03/13 08:43:08;;;;;;;4.30;2.17;;;23.20;29.70;;;;;;5044592;28;20201;-63
2021/03/13 08:45:34;;;;;;;3.93;1.57;;;23.20;29.50;;;;;;5047825;28;20201;-57
2021/03/13 08:48:00;;;;;;;9.17;2.67;;;23.20;29.80;;;;;;5049526;28;20209;-55
2021/03/13 08:50:27;;;;;;;3.03;1.40;;;23.20;31.00;;;;;;5048210;28;20232;-54
2021/03/13 08:52:53;;;;;;;5.93;2.00;;;23.30;29.80;;;;;;5049903;28;20231;-57
2021/03/13 08:55:19;;;;;;;5.38;1.58;;;23.20;30.50;;;;;;5049862;28;20202;-56
2021/03/13 08:57:45;;;;;;;4.13;1.57;;;23.20;31.30;;;;;;5048568;28;20205;-58
2021/03/13 09:00:11;;;;;;;8.27;2.20;;;23.10;31.40;;;;;;5049189;28;20722;-58
2021/03/13 09:02:37;;;;;;;6.13;1.40;;;23.10;31.70;;;;;;5049508;28;20200;-57
2021/03/13 09:05:03;;;;;;;2.90;1.83;;;23.10;31.60;;;;;;5049822;28;20571;-58
2021/03/13 09:07:29;;;;;;;4.30;1.93;;;23.10;31.50;;;;;;5048992;28;20204;-51
2021/03/13 09:09:56;;;;;;;2.80;1.53;;;22.10;26.60;;;;;;5046323;28;20659;-52
2021/03/13 09:12:22;;;;;;;3.60;1.40;;;20.70;24.50;;;;;;5048159;28;20201;-51
2021/03/13 09:14:48;;;;;;;2.37;1.20;;;20.40;25.40;;;;;;5030975;28;20203;-49
2021/03/13 09:17:14;;;;;;;2.77;1.30;;;21.30;26.60;;;;;;5045881;28;20249;-49
2021/03/13 09:19:40;;;;;;;3.37;1.67;;;21.90;27.30;;;;;;5047633;28;20234;-52
2021/03/13 09:22:06;;;;;;;1.77;1.00;;;22.20;27.50;;;;;;5050490;28;20316;-48
2021/03/13 09:24:32;;;;;;;3.53;1.30;;;22.40;27.70;;;;;;5048515;28;20216;-51
2021/03/13 09:26:58;;;;;;;2.07;1.27;;;22.40;27.60;;;;;;5049246;28;20203;-51
2021/03/13 09:29:24;;;;;;;2.83;1.20;;;22.50;27.70;;;;;;5049212;28;20223;-51
2021/03/13 09:31:50;;;;;;;1.80;1.10;;;22.50;27.70;;;;;;5048259;28;20582;-50
2021/03/13 09:34:16;;;;;;;2.50;1.17;;;22.50;27.70;;;;;;5050926;28;20203;-53
2021/03/13 09:36:44;;;;;;;2.57;1.40;;;22.50;27.70;;;;;;5053725;28;20208;-53
2021/03/13 09:39:11;;;;;;;2.13;1.20;;;22.60;27.70;;;;;;5053986;28;20696;-61
2021/03/13 09:41:37;;;;;;;1.53;0.90;;;22.70;27.40;;;;;;5050099;28;20201;-55
2021/03/13 09:44:03;;;;;;;1.60;1.00;;;22.70;27.10;;;;;;5051893;28;20217;-58
2021/03/13 09:46:29;;;;;;;2.10;0.90;;;22.80;27.30;;;;;;5052845;28;20662;-52
2021/03/13 09:48:55;;;;;;;3.67;1.20;;;22.80;27.20;;;;;;5052385;28;20212;-56
2021/03/13 09:51:21;;;;;;;2.60;1.20;;;22.70;27.10;;;;;;5053264;28;20197;-58
2021/03/13 09:53:47;;;;;;;1.67;1.20;;;22.70;26.90;;;;;;5052424;28;20204;-55
2021/03/13 09:56:13;;;;;;;2.37;1.30;;;22.70;27.00;;;;;;5052440;28;20322;-54
2021/03/13 09:58:39;;;;;;;2.30;1.30;;;22.70;27.00;;;;;;5023019;28;20249;-53
2021/03/13 10:01:05;;;;;;;1.90;0.97;;;22.70;27.00;;;;;;5049823;28;20235;-59
2021/03/13 10:03:31;;;;;;;1.63;1.07;;;22.70;26.90;;;;;;5051173;28;20248;-58
2021/03/13 10:05:58;;;;;;;2.60;1.10;;;22.70;27.00;;;;;;5053281;28;20567;-59
2021/03/13 10:08:24;;;;;;;1.70;1.20;;;22.70;26.80;;;;;;5052582;28;20238;-65
2021/03/13 10:10:51;;;;;;;1.50;1.00;;;22.80;26.60;;;;;;5052539;28;20221;-58
2021/03/13 10:13:17;;;;;;;1.17;1.00;;;22.80;26.40;;;;;;5050905;28;20654;-55
2021/03/13 10:15:43;;;;;;;2.03;1.00;;;22.90;26.20;;;;;;5046536;28;20202;-54
2021/03/13 10:18:09;;;;;;;1.10;1.00;;;22.90;26.20;;;;;;5042799;28;20201;-50
2021/03/13 10:20:35;;;;;;;0.90;0.90;;;22.80;26.10;;;;;;5052418;28;20310;-50
2021/03/13 10:23:01;;;;;;;1.70;1.13;;;22.80;26.00;;;;;;5052224;28;20208;-51
2021/03/13 10:25:27;;;;;;;1.47;1.00;;;22.80;25.80;;;;;;5052062;28;20725;-51
2021/03/13 10:27:53;;;;;;;1.10;1.00;;;22.80;25.60;;;;;;5052171;28;20209;-47
2021/03/13 10:30:20;;;;;;;5.90;1.57;;;22.60;24.30;;;;;;5050426;28;20225;-52
2021/03/13 10:32:46;;;;;;;1.30;1.00;;;22.70;24.00;;;;;;5041439;28;20260;-50
2021/03/13 10:35:12;;;;;;;2.53;1.17;;;22.70;24.30;;;;;;5043027;28;20219;-56
2021/03/13 10:37:38;;;;;;;1.57;1.17;;;22.70;24.40;;;;;;5054009;28;20204;-53
2021/03/13 10:40:04;;;;;;;2.37;1.13;;;22.70;24.20;;;;;;5053785;28;20632;-48
2021/03/13 10:42:34;;;;;;;2.67;0.90;;;22.70;24.10;;;;;;5051091;28;20201;-50
2021/03/13 10:45:00;;;;;;;1.93;1.00;;;22.70;24.10;;;;;;5053154;28;20200;-55
2021/03/13 10:47:26;;;;;;;2.33;1.10;;;22.70;23.90;;;;;;5059002;28;20216;-50
2021/03/13 10:49:52;;;;;;;1.97;1.10;;;22.70;23.90;;;;;;5056777;28;20720;-51
2021/03/13 10:52:18;;;;;;;1.40;1.00;;;22.70;24.00;;;;;;5048462;28;20200;-49
2021/03/13 10:54:44;;;;;;;1.37;1.13;;;22.70;23.90;;;;;;5053426;28;20205;-52
2021/03/13 10:57:10;;;;;;;2.57;1.10;;;22.70;23.90;;;;;;5053468;28;20200;-54
2021/03/13 10:59:36;;;;;;;2.40;1.00;;;22.70;24.00;;;;;;5053455;28;20233;-50
2021/03/13 11:02:03;;;;;;;3.37;1.50;;;22.70;23.90;;;;;;5052937;28;20215;-52
2021/03/13 11:04:29;;;;;;;1.33;1.23;;;22.70;24.00;;;;;;5053249;28;20270;-54
2021/03/13 11:06:57;;;;;;;2.30;1.67;;;22.70;23.90;;;;;;5046842;28;20208;-51
2021/03/13 11:09:23;;;;;;;1.33;1.23;;;22.70;23.90;;;;;;5051592;28;20763;-52
2021/03/13 11:11:49;;;;;;;1.60;0.97;;;22.70;23.90;;;;;;5052454;28;20383;-58
2021/03/13 11:14:15;;;;;;;2.07;1.00;;;22.80;24.90;;;;;;5038845;28;20654;-65
2021/03/13 11:16:41;;;;;;;1.40;1.10;;;22.90;24.60;;;;;;5050247;28;20201;-65
2021/03/13 11:19:07;;;;;;;2.50;1.10;;;22.80;24.70;;;;;;5041601;28;20232;-65
2021/03/13 11:21:34;;;;;;;1.47;1.20;;;22.80;24.30;;;;;;5051601;28;20209;-65
2021/03/13 11:24:01;;;;;;;2.03;0.90;;;22.60;22.80;;;;;;5036252;28;20264;-65
2021/03/13 11:26:27;;;;;;;2.53;1.10;;;22.40;21.60;;;;;;5050917;28;20216;-64
2021/03/13 11:28:53;;;;;;;1.67;0.97;;;22.20;21.20;;;;;;5052198;28;20223;-65
2021/03/13 11:31:19;;;;;;;2.60;1.30;;;22.30;22.00;;;;;;5051628;28;20226;-64
2021/03/13 11:33:45;;;;;;;2.60;1.00;;;22.30;21.30;;;;;;5049987;28;20209;-63
2021/03/13 11:36:11;;;;;;;1.00;1.00;;;22.30;21.60;;;;;;5052825;28;20210;-63
2021/03/13 11:38:38;;;;;;;1.50;1.10;;;22.40;21.80;;;;;;5050919;28;20221;-47
2021/03/13 11:41:04;;;;;;;1.80;1.10;;;22.40;21.10;;;;;;5043718;28;20216;-46
2021/03/13 11:43:30;;;;;;;2.23;1.20;;;22.40;21.60;;;;;;5033727;28;20196;-41
2021/03/13 11:45:56;;;;;;;3.47;1.00;;;22.40;20.70;;;;;;5046790;28;20216;-43
2021/03/13 11:48:22;;;;;;;1.47;0.90;;;22.40;21.10;;;;;;5049302;28;20239;-43
2021/03/13 11:50:48;;;;;;;2.90;1.00;;;22.50;21.40;;;;;;5050926;28;20211;-45
2021/03/13 11:53:14;;;;;;;1.00;0.90;;;22.50;21.60;;;;;;5050684;28;20208;-41
2021/03/13 11:55:40;;;;;;;1.60;0.97;;;22.60;22.00;;;;;;5050725;28;20212;-44
2021/03/13 11:58:06;;;;;;;1.37;0.90;;;22.60;22.20;;;;;;5049487;28;20612;-41
2021/03/13 12:00:32;;;;;;;0.90;0.90;;;22.60;22.20;;;;;;5050316;28;20228;-43
2021/03/13 12:02:58;;;;;;;6.47;2.00;;;22.70;22.40;;;;;;5050569;28;20681;-42
2021/03/13 12:05:25;;;;;;;19.43;6.13;;;22.70;22.50;;;;;;5051307;28;20208;-45
2021/03/13 12:07:51;;;;;;;15.10;6.50;;;22.70;23.70;;;;;;5050189;28;20204;-42
2021/03/13 12:10:17;;;;;;;21.77;9.43;;;22.80;23.30;;;;;;5051694;28;20235;-42
2021/03/13 12:12:43;;;;;;;24.50;10.53;;;23.00;23.80;;;;;;5051419;28;20283;-43
2021/03/13 12:15:10;;;;;;;25.50;10.10;;;23.10;24.10;;;;;;5050448;28;20212;-59
2021/03/13 12:17:36;;;;;;;34.60;13.37;;;23.20;24.30;;;;;;5043847;28;20209;-53
2021/03/13 12:20:02;;;;;;;33.90;11.87;;;23.20;24.30;;;;;;5044112;28;20240;-50
2021/03/13 12:22:28;;;;;;;28.87;11.40;;;23.30;24.30;;;;;;5050563;28;20198;-42
2021/03/13 12:24:54;;;;;;;25.43;9.40;;;23.30;24.40;;;;;;5049056;28;20289;-45
2021/03/13 12:27:20;;;;;;;26.83;10.47;;;23.30;24.60;;;;;;5050861;28;20209;-43
2021/03/13 12:29:46;;;;;;;29.83;12.10;;;23.40;25.00;;;;;;5049895;28;20228;-46
2021/03/13 12:32:12;;;;;;;32.37;12.20;;;23.40;25.60;;;;;;5042514;28;20216;-46
2021/03/13 12:34:38;;;;;;;33.57;13.67;;;23.40;25.70;;;;;;5033639;28;20209;-53
2021/03/13 12:37:04;;;;;;;38.83;13.87;;;23.40;26.40;;;;;;5029027;28;20247;-51
2021/03/13 12:39:30;;;;;;;27.37;12.40;;;23.40;26.70;;;;;;5030485;28;20237;-47